createdAt,value
2023-11-01T00:01:42.739Z,2.30
2023-11-01T00:04:09.813Z,1.83
2023-11-01T00:06:36.752Z,2.03
2023-11-01T00:09:03.698Z,1.40
2023-11-01T00:11:30.625Z,1.58
2023-11-01T00:13:57.603Z,1.05
2023-11-01T00:16:24.568Z,1.10
2023-11-01T00:18:53.457Z,0.90
2023-11-01T00:21:20.354Z,0.93
2023-11-01T00:23:47.397Z,0.70
2023-11-01T00:26:14.600Z,0.80
2023-11-01T00:28:41.564Z,1.00
2023-11-01T00:31:08.550Z,0.90
2023-11-01T00:33:35.644Z,1.27
2023-11-01T00:36:04.786Z,0.95
2023-11-01T00:38:33.525Z,0.93
2023-11-01T00:41:03.793Z,1.00
2023-11-01T00:43:30.832Z,1.08
2023-11-01T00:45:57.812Z,0.90
2023-11-01T00:48:24.974Z,0.82
2023-11-01T00:50:51.830Z,1.00
2023-11-01T00:53:20.113Z,0.93
2023-11-01T00:55:47.083Z,1.10
2023-11-01T00:58:14.213Z,0.93
2023-11-01T01:00:41.229Z,1.10
2023-11-01T01:03:09.750Z,0.88
2023-11-01T01:05:37.110Z,1.83
2023-11-01T01:08:04.093Z,3.10
2023-11-01T01:10:32.933Z,3.38
2023-11-01T01:13:00.193Z,1.73
2023-11-01T01:15:27.051Z,1.42
2023-11-01T01:17:54.548Z,0.80
2023-11-01T01:20:21.543Z,0.93
2023-11-01T01:22:48.846Z,1.00
2023-11-01T01:25:16.019Z,0.85
2023-11-01T01:27:45.327Z,0.93
2023-11-01T01:30:12.722Z,1.17
2023-11-01T01:32:39.704Z,0.90
2023-11-01T01:35:06.931Z,0.80
2023-11-01T01:37:33.838Z,0.90
2023-11-01T01:40:00.862Z,3.20
2023-11-01T01:42:27.710Z,3.00
2023-11-01T01:44:56.240Z,2.67
2023-11-01T01:47:23.307Z,2.58
2023-11-01T01:49:52.037Z,1.80
2023-11-01T01:52:19.033Z,1.70
2023-11-01T01:54:46.023Z,2.40
2023-11-01T01:57:13.243Z,2.60
2023-11-01T01:59:40.471Z,2.50
2023-11-01T02:02:10.389Z,2.20
2023-11-01T02:04:37.533Z,1.42
2023-11-01T02:07:04.999Z,1.47
2023-11-01T02:09:32.425Z,1.38
2023-11-01T02:12:00.629Z,2.20
2023-11-01T02:14:28.092Z,3.00
2023-11-01T02:16:55.115Z,2.90
2023-11-01T02:19:24.644Z,2.10
2023-11-01T02:21:51.882Z,3.78
2023-11-01T02:24:20.985Z,3.85
2023-11-01T02:26:48.132Z,3.55
2023-11-01T02:29:15.309Z,2.97
2023-11-01T02:31:43.149Z,2.80
2023-11-01T02:34:10.103Z,4.00
2023-11-01T02:36:37.226Z,1.10
2023-11-01T02:39:04.375Z,1.90
2023-11-01T02:41:33.244Z,0.90
2023-11-01T02:44:00.443Z,1.20
2023-11-01T02:46:27.624Z,1.58
2023-11-01T02:48:54.506Z,1.23
2023-11-01T02:51:21.407Z,1.10
2023-11-01T02:53:48.983Z,1.38
2023-11-01T02:56:15.980Z,0.80
2023-11-01T02:58:44.596Z,1.20
2023-11-01T03:01:12.628Z,1.33
2023-11-01T03:03:40.016Z,1.15
2023-11-01T03:06:07.404Z,1.05
2023-11-01T03:08:34.424Z,1.10
2023-11-01T03:11:01.653Z,1.17
2023-11-01T03:13:28.851Z,1.42
2023-11-01T03:15:57.508Z,1.60
2023-11-01T03:18:24.758Z,1.20
2023-11-01T03:20:51.811Z,2.43
2023-11-01T03:23:19.015Z,1.05
2023-11-01T03:25:46.037Z,1.15
2023-11-01T03:28:12.945Z,1.08
2023-11-01T03:30:40.402Z,0.95
2023-11-01T03:33:08.790Z,0.70
2023-11-01T03:35:36.091Z,0.80
2023-11-01T03:38:03.081Z,0.70
2023-11-01T03:40:30.811Z,0.77
2023-11-01T03:42:58.313Z,0.70
2023-11-01T03:45:25.609Z,0.60
2023-11-01T03:47:53.749Z,0.63
2023-11-01T03:50:22.250Z,0.73
2023-11-01T03:52:49.538Z,1.65
2023-11-01T03:55:16.728Z,1.92
2023-11-01T03:57:44.031Z,2.20
2023-11-01T04:00:11.957Z,2.30
2023-11-01T04:02:39.242Z,2.33
2023-11-01T04:05:06.973Z,2.03
2023-11-01T04:07:35.580Z,2.13
2023-11-01T04:10:02.556Z,2.03
2023-11-01T04:12:29.456Z,2.10
2023-11-01T04:14:56.673Z,2.42
2023-11-01T04:17:23.874Z,2.47
2023-11-01T04:19:51.026Z,1.85
2023-11-01T04:22:17.964Z,1.60
2023-11-01T04:24:46.479Z,1.90
2023-11-01T04:27:13.736Z,1.52
2023-11-01T04:29:41.099Z,1.15
2023-11-01T04:32:08.212Z,1.30
2023-11-01T04:34:35.413Z,1.33
2023-11-01T04:37:02.901Z,1.40
2023-11-01T04:39:30.068Z,1.55
2023-11-01T04:41:58.341Z,1.10
2023-11-01T04:44:25.265Z,0.60
2023-11-01T04:46:52.399Z,0.50
2023-11-01T04:49:19.580Z,0.32
2023-11-01T04:51:46.570Z,0.50
2023-11-01T04:54:14.159Z,0.50
2023-11-01T04:56:41.949Z,0.40
2023-11-01T04:59:10.537Z,0.40
2023-11-01T05:01:38.313Z,0.60
2023-11-01T05:04:05.531Z,0.50
2023-11-01T05:06:32.725Z,0.70
2023-11-01T05:08:59.891Z,0.60
2023-11-01T05:11:26.930Z,0.50
2023-11-01T05:13:54.775Z,1.75
2023-11-01T05:16:23.773Z,2.45
2023-11-01T05:18:51.191Z,4.20
2023-11-01T05:21:18.422Z,4.22
2023-11-01T05:23:47.196Z,3.27
2023-11-01T05:26:15.677Z,3.28
2023-11-01T05:28:45.340Z,2.95
2023-11-01T05:31:12.612Z,2.10
2023-11-01T05:33:40.982Z,1.92
2023-11-01T05:36:10.784Z,1.60
2023-11-01T05:38:38.091Z,1.30
2023-11-01T05:41:08.823Z,1.60
2023-11-01T05:43:35.887Z,1.50
2023-11-01T05:46:03.229Z,1.35
2023-11-01T05:48:30.261Z,1.20
2023-11-01T05:50:58.881Z,1.33
2023-11-01T05:53:25.869Z,1.13
2023-11-01T05:56:04.163Z,1.10
2023-11-01T05:58:35.381Z,1.90
2023-11-01T06:01:02.545Z,5.43
2023-11-01T06:03:30.178Z,5.78
2023-11-01T06:05:59.911Z,5.97
2023-11-01T06:08:27.058Z,5.38
2023-11-01T06:10:55.668Z,6.18
2023-11-01T06:13:23.032Z,4.27
2023-11-01T06:15:52.940Z,2.63
2023-11-01T06:18:20.677Z,2.00
2023-11-01T06:20:47.661Z,2.10
2023-11-01T06:23:16.236Z,2.65
2023-11-01T06:25:43.591Z,2.70
2023-11-01T06:28:11.382Z,2.90
2023-11-01T06:30:38.324Z,3.42
2023-11-01T06:33:05.620Z,3.03
2023-11-01T06:35:33.084Z,3.17
2023-11-01T06:38:00.324Z,2.70
2023-11-01T06:40:29.343Z,3.00
2023-11-01T06:42:56.285Z,2.85
2023-11-01T06:45:23.706Z,2.40
2023-11-01T06:47:51.250Z,2.67
2023-11-01T06:50:18.554Z,2.27
2023-11-01T06:52:48.750Z,2.25
2023-11-01T06:55:17.654Z,2.20
2023-11-01T06:57:46.127Z,1.83
2023-11-01T07:00:14.331Z,1.60
2023-11-01T07:02:41.560Z,1.77
2023-11-01T07:05:09.212Z,1.60
2023-11-01T07:07:36.481Z,1.75
2023-11-01T07:10:03.531Z,2.50
2023-11-01T07:12:30.523Z,2.03
2023-11-01T07:14:58.806Z,1.87
2023-11-01T07:17:29.078Z,2.17
2023-11-01T07:19:56.381Z,2.35
2023-11-01T07:22:23.305Z,1.50
2023-11-01T07:24:50.757Z,2.35
2023-11-01T07:27:17.742Z,1.80
2023-11-01T07:29:45.513Z,1.65
2023-11-01T07:32:14.172Z,2.10
2023-11-01T07:34:41.641Z,1.95
2023-11-01T07:37:09.224Z,1.70
2023-11-01T07:39:36.353Z,1.60
2023-11-01T07:42:03.467Z,1.98
2023-11-01T07:44:30.371Z,1.10
2023-11-01T07:46:57.326Z,1.80
2023-11-01T07:49:26.162Z,1.25
2023-11-01T07:51:53.148Z,1.37
2023-11-01T07:54:20.344Z,1.13
2023-11-01T07:56:47.247Z,0.80
2023-11-01T07:59:14.343Z,0.73
2023-11-01T08:01:42.418Z,1.08
2023-11-01T08:04:10.180Z,0.60
2023-11-01T08:06:38.952Z,0.70
2023-11-01T08:09:06.157Z,0.80
2023-11-01T08:11:33.134Z,0.80
2023-11-01T08:14:00.206Z,0.88
2023-11-01T08:16:28.318Z,1.10
2023-11-01T08:18:55.491Z,1.10
2023-11-01T08:21:22.599Z,0.70
2023-11-01T08:23:51.212Z,0.80
2023-11-01T08:26:18.390Z,0.82
2023-11-01T08:28:45.363Z,0.60
2023-11-01T08:31:12.480Z,0.60
2023-11-01T08:33:39.517Z,0.68
2023-11-01T08:36:06.859Z,0.63
2023-11-01T08:38:34.386Z,0.60
2023-11-01T08:41:02.683Z,0.60
2023-11-01T08:43:29.760Z,0.50
2023-11-01T08:45:56.722Z,0.60
2023-11-01T08:48:23.820Z,0.57
2023-11-01T08:50:50.906Z,0.70
2023-11-01T08:53:17.812Z,0.80
2023-11-01T08:55:44.952Z,0.60
2023-11-01T08:58:13.308Z,0.40
2023-11-01T09:00:45.905Z,0.40
2023-11-01T09:03:15.782Z,0.50
2023-11-01T09:05:43.615Z,0.47
2023-11-01T09:08:10.615Z,0.40
2023-11-01T09:10:37.845Z,0.40
2023-11-01T09:13:05.085Z,0.30
2023-11-01T09:15:33.457Z,0.52
2023-11-01T09:18:00.563Z,0.30
2023-11-01T09:20:27.486Z,0.40
2023-11-01T09:22:54.432Z,0.40
2023-11-01T09:25:21.474Z,0.47
2023-11-01T09:27:48.481Z,0.30
2023-11-01T09:30:15.433Z,0.30
2023-11-01T09:32:44.043Z,0.40
2023-11-01T09:35:13.204Z,0.38
2023-11-01T09:37:40.098Z,0.30
2023-11-01T09:40:12.353Z,0.30
2023-11-01T09:42:41.287Z,0.40
2023-11-01T09:45:10.786Z,0.30
2023-11-01T09:47:38.310Z,0.32
2023-11-01T09:50:07.691Z,0.30
2023-11-01T09:52:36.114Z,0.35
2023-11-01T09:55:05.221Z,0.30
2023-11-01T09:57:34.117Z,0.30
2023-11-01T10:00:02.631Z,0.40
2023-11-01T10:02:29.646Z,0.30
2023-11-01T10:04:57.434Z,0.30
2023-11-01T10:07:25.897Z,0.30
2023-11-01T10:09:53.467Z,0.30
2023-11-01T10:12:20.819Z,0.30
2023-11-01T10:14:47.913Z,0.40
2023-11-01T10:17:15.617Z,0.30
2023-11-01T10:19:44.392Z,0.30
2023-11-01T10:22:13.761Z,0.30
2023-11-01T10:24:44.135Z,0.30
2023-11-01T10:27:12.041Z,0.30
2023-11-01T10:29:43.208Z,0.32
2023-11-01T10:32:11.643Z,0.30
2023-11-01T10:34:38.744Z,0.50
2023-11-01T10:37:06.509Z,0.40
2023-11-01T10:39:38.615Z,0.30
2023-11-01T10:42:09.131Z,0.30
2023-11-01T10:44:36.361Z,0.40
2023-11-01T10:47:04.055Z,0.30
2023-11-01T10:49:32.115Z,0.30
2023-11-01T10:52:00.774Z,0.30
2023-11-01T10:54:28.615Z,0.40
2023-11-01T10:56:55.820Z,0.30
2023-11-01T10:59:31.111Z,0.40
2023-11-01T11:02:02.208Z,0.40
2023-11-01T11:04:33.884Z,0.30
2023-11-01T11:07:10.260Z,0.40
2023-11-01T11:09:39.721Z,0.37
2023-11-01T11:12:14.874Z,0.30
2023-11-01T11:14:43.847Z,0.30
2023-11-01T11:17:14.379Z,0.40
2023-11-01T11:20:00.304Z,0.30
2023-11-01T11:22:47.797Z,0.30
2023-11-01T11:25:29.534Z,0.32
2023-11-01T11:27:57.097Z,0.30
2023-11-01T11:30:42.641Z,0.30
2023-11-01T11:33:11.172Z,0.35
2023-11-01T11:35:38.193Z,0.30
2023-11-01T11:38:20.362Z,0.47
2023-11-01T11:40:47.377Z,0.30
2023-11-01T11:43:14.434Z,0.40
2023-11-01T11:45:41.623Z,0.40
2023-11-01T11:48:24.098Z,0.40
2023-11-01T11:50:54.557Z,0.30
2023-11-01T11:53:23.906Z,0.30
2023-11-01T11:55:51.350Z,0.30
2023-11-01T11:58:19.495Z,0.30
2023-11-01T12:00:47.259Z,0.30
2023-11-01T12:03:25.409Z,0.60
2023-11-01T12:05:57.842Z,0.45
2023-11-01T12:08:34.690Z,0.30
2023-11-01T12:11:01.738Z,0.40
2023-11-01T12:13:39.644Z,0.50
2023-11-01T12:16:07.823Z,0.40
2023-11-01T12:18:35.102Z,0.65
2023-11-01T12:21:13.081Z,0.40
2023-11-01T12:23:46.683Z,0.30
2023-11-01T12:26:14.086Z,1.17
2023-11-01T12:28:49.387Z,0.40
2023-11-01T12:31:16.485Z,0.40
2023-11-01T12:33:43.980Z,0.40
2023-11-01T12:36:12.466Z,0.40
2023-11-01T12:38:45.098Z,0.40
2023-11-01T12:41:12.065Z,0.40
2023-11-01T12:43:39.025Z,0.52
2023-11-01T12:46:05.971Z,0.88
2023-11-01T12:48:32.930Z,1.15
2023-11-01T12:51:00.042Z,0.67
2023-11-01T12:53:28.385Z,0.63
2023-11-01T12:55:55.359Z,0.70
2023-11-01T12:58:22.273Z,0.50
2023-11-01T13:00:49.365Z,0.50
2023-11-01T13:03:16.416Z,0.60
2023-11-01T13:05:43.498Z,0.40
2023-11-01T13:08:10.976Z,0.52
2023-11-01T13:10:39.338Z,0.60
2023-11-01T13:13:09.212Z,0.30
2023-11-01T13:15:36.237Z,0.50
2023-11-01T13:18:03.322Z,0.60
2023-11-01T13:20:30.306Z,0.40
2023-11-01T13:22:57.328Z,0.45
2023-11-01T13:25:24.281Z,0.65
2023-11-01T13:27:52.565Z,0.90
2023-11-01T13:30:19.635Z,0.93
2023-11-01T13:32:47.471Z,1.05
2023-11-01T13:35:14.677Z,1.80
2023-11-01T13:37:41.573Z,1.02
2023-11-01T13:40:10.687Z,1.73
2023-11-01T13:42:37.595Z,2.33
2023-11-01T13:45:06.599Z,3.05
2023-11-01T13:47:33.634Z,5.00
2023-11-01T13:50:00.617Z,1.30
2023-11-01T13:52:27.939Z,1.00
2023-11-01T13:54:54.932Z,0.80
2023-11-01T13:57:23.924Z,0.70
2023-11-01T13:59:50.925Z,0.40
2023-11-01T14:02:19.352Z,1.00
2023-11-01T14:04:46.370Z,0.60
2023-11-01T14:07:13.321Z,0.70
2023-11-01T14:09:40.854Z,0.68
2023-11-01T14:12:07.846Z,1.83
2023-11-01T14:14:35.155Z,2.17
2023-11-01T14:17:02.295Z,1.87
2023-11-01T14:19:30.615Z,0.90
2023-11-01T14:21:58.443Z,0.98
2023-11-01T14:24:25.513Z,0.70
2023-11-01T14:26:53.050Z,1.25
2023-11-01T14:29:20.116Z,0.93
2023-11-01T14:31:47.159Z,1.50
2023-11-01T14:34:14.136Z,0.80
2023-11-01T14:36:42.974Z,1.00
2023-11-01T14:39:10.372Z,1.23
2023-11-01T14:41:37.342Z,1.10
2023-11-01T14:44:04.581Z,0.90
2023-11-01T14:46:31.628Z,1.80
2023-11-01T14:48:58.584Z,2.15
2023-11-01T14:51:25.542Z,1.98
2023-11-01T14:53:54.013Z,1.70
2023-11-01T14:56:21.086Z,1.65
2023-11-01T14:58:50.045Z,1.38
2023-11-01T15:01:17.150Z,1.13
2023-11-01T15:03:45.854Z,1.10
2023-11-01T15:06:13.497Z,0.80
2023-11-01T15:08:40.691Z,0.90
2023-11-01T15:11:11.316Z,0.68
2023-11-01T15:13:38.338Z,0.60
2023-11-01T15:16:05.759Z,0.70
2023-11-01T15:18:32.837Z,0.40
2023-11-01T15:20:59.922Z,0.70
2023-11-01T15:23:26.891Z,1.27
2023-11-01T15:25:53.925Z,1.05
2023-11-01T15:28:22.566Z,0.95
2023-11-01T15:30:49.471Z,1.23
2023-11-01T15:33:17.590Z,1.10
2023-11-01T15:35:44.664Z,0.98
2023-11-01T15:38:11.774Z,0.95
2023-11-01T15:40:38.661Z,1.25
2023-11-01T15:43:06.343Z,1.00
2023-11-01T15:45:34.676Z,1.10
2023-11-01T15:48:01.850Z,1.95
2023-11-01T15:50:30.305Z,1.75
2023-11-01T15:52:57.513Z,1.55
2023-11-01T15:55:24.416Z,1.30
2023-11-01T15:57:51.336Z,1.25
2023-11-01T16:00:18.490Z,1.40
2023-11-01T16:02:47.010Z,1.48
2023-11-01T16:05:14.271Z,2.03
2023-11-01T16:07:41.905Z,3.23
2023-11-01T16:10:13.664Z,3.85
2023-11-01T16:12:40.643Z,3.90
2023-11-01T16:15:08.007Z,3.63
2023-11-01T16:17:35.366Z,3.22
2023-11-01T16:20:03.919Z,3.20
2023-11-01T16:22:31.167Z,2.42
2023-11-01T16:24:58.107Z,2.45
2023-11-01T16:27:25.258Z,2.10
2023-11-01T16:29:53.755Z,2.13
2023-11-01T16:32:20.970Z,1.83
2023-11-01T16:34:47.955Z,2.53
2023-11-01T16:37:16.303Z,3.00
2023-11-01T16:39:43.630Z,2.80
2023-11-01T16:42:11.823Z,2.72
2023-11-01T16:44:41.097Z,3.50
2023-11-01T16:47:08.302Z,2.20
2023-11-01T16:49:36.064Z,2.15
2023-11-01T16:52:03.468Z,2.92
2023-11-01T16:54:31.804Z,2.40
2023-11-01T16:56:58.729Z,2.00
2023-11-01T16:59:26.071Z,1.98
2023-11-01T17:01:53.575Z,2.45
2023-11-01T17:04:20.635Z,2.83
2023-11-01T17:06:47.750Z,3.38
2023-11-01T17:09:14.941Z,3.53
2023-11-01T17:11:43.775Z,3.17
2023-11-01T17:14:10.837Z,3.95
2023-11-01T17:16:37.914Z,3.33
2023-11-01T17:19:05.231Z,3.33
2023-11-01T17:21:33.287Z,3.07
2023-11-01T17:24:00.298Z,3.58
2023-11-01T17:26:28.366Z,3.10
2023-11-01T17:28:57.466Z,3.13
2023-11-01T17:31:41.100Z,3.28
2023-11-01T17:34:08.500Z,3.23
2023-11-01T17:36:36.829Z,3.55
2023-11-01T17:39:06.851Z,3.97
2023-11-01T17:41:46.778Z,4.10
2023-11-01T17:44:15.284Z,2.30
2023-11-01T17:46:42.415Z,2.20
2023-11-01T17:49:10.313Z,2.20
2023-11-01T17:51:37.581Z,2.58
2023-11-01T17:54:04.684Z,1.98
2023-11-01T17:56:31.783Z,2.00
2023-11-01T17:58:59.065Z,2.17
2023-11-01T18:01:28.700Z,2.22
2023-11-01T18:03:58.623Z,2.10
2023-11-01T18:06:25.753Z,1.83
2023-11-01T18:08:53.226Z,2.20
2023-11-01T18:11:22.546Z,2.10
2023-11-01T18:13:50.505Z,2.92
2023-11-01T18:16:21.889Z,3.60
2023-11-01T18:18:56.987Z,3.15
2023-11-01T18:21:25.069Z,2.67
2023-11-01T18:23:53.373Z,2.70
2023-11-01T18:26:21.173Z,3.22
2023-11-01T18:28:49.084Z,2.92
2023-11-01T18:31:17.511Z,2.80
2023-11-01T18:33:53.303Z,2.92
2023-11-01T18:36:20.584Z,2.47
2023-11-01T18:38:48.644Z,2.85
2023-11-01T18:41:15.831Z,2.60
2023-11-01T18:43:44.410Z,2.70
2023-11-01T18:46:11.414Z,2.35
2023-11-01T18:48:38.456Z,1.97
2023-11-01T18:51:10.196Z,1.70
2023-11-01T18:53:39.219Z,1.50
2023-11-01T18:56:06.418Z,1.30
2023-11-01T18:58:34.423Z,1.40
2023-11-01T19:01:02.246Z,1.20
2023-11-01T19:03:29.264Z,1.70
2023-11-01T19:05:58.188Z,1.60
2023-11-01T19:08:28.084Z,1.00
2023-11-01T19:10:56.525Z,1.30
2023-11-01T19:13:23.911Z,1.37
2023-11-01T19:16:09.322Z,1.40
2023-11-01T19:18:37.338Z,1.40
2023-11-01T19:21:04.778Z,1.52
2023-11-01T19:23:33.541Z,1.90
2023-11-01T19:26:00.463Z,1.70
2023-11-01T19:28:27.402Z,1.73
2023-11-01T19:30:54.465Z,2.05
2023-11-01T19:33:29.249Z,1.73
2023-11-01T19:36:07.876Z,1.80
2023-11-01T19:38:43.489Z,1.97
2023-11-01T19:41:10.638Z,1.83
2023-11-01T19:43:37.580Z,2.78
2023-11-01T19:46:05.083Z,3.63
2023-11-01T19:48:32.690Z,3.10
2023-11-01T19:51:01.828Z,3.73
2023-11-01T19:53:28.857Z,4.43
2023-11-01T19:55:57.838Z,4.65
2023-11-01T19:58:24.797Z,3.85
2023-11-01T20:00:51.857Z,3.03
2023-11-01T20:03:19.100Z,3.87
2023-11-01T20:05:46.175Z,3.15
2023-11-01T20:08:13.924Z,4.13
2023-11-01T20:10:40.919Z,3.75
2023-11-01T20:13:09.409Z,3.58
2023-11-01T20:15:36.374Z,1.93
2023-11-01T20:18:04.537Z,1.75
2023-11-01T20:20:31.558Z,1.60
2023-11-01T20:22:58.544Z,1.20
2023-11-01T20:25:25.637Z,1.45
2023-11-01T20:27:52.656Z,1.67
2023-11-01T20:30:21.071Z,2.00
2023-11-01T20:32:48.176Z,2.00
2023-11-01T20:35:15.196Z,2.03
2023-11-01T20:37:42.683Z,1.92
2023-11-01T20:40:09.960Z,1.53
2023-11-01T20:42:38.144Z,1.77
2023-11-01T20:45:05.683Z,1.27
2023-11-01T20:47:34.255Z,1.20
2023-11-01T20:50:02.422Z,1.00
2023-11-01T20:52:29.308Z,1.40
2023-11-01T20:54:58.332Z,1.08
2023-11-01T20:57:26.217Z,1.17
2023-11-01T20:59:53.235Z,1.30
2023-11-01T21:02:20.487Z,1.05
2023-11-01T21:04:48.942Z,1.30
2023-11-01T21:07:15.891Z,1.15
2023-11-01T21:09:42.855Z,1.42
2023-11-01T21:12:09.930Z,1.35
2023-11-01T21:14:38.566Z,1.02
2023-11-01T21:17:06.498Z,1.00
2023-11-01T21:19:33.537Z,1.00
2023-11-01T21:22:02.377Z,1.02
2023-11-01T21:24:29.907Z,1.00
2023-11-01T21:26:58.079Z,0.73
2023-11-01T21:29:25.192Z,1.00
2023-11-01T21:31:52.342Z,1.50
2023-11-01T21:34:19.717Z,1.27
2023-11-01T21:36:46.993Z,0.85
2023-11-01T21:39:15.799Z,1.23
2023-11-01T21:41:44.174Z,1.10
2023-11-01T21:44:11.630Z,1.00
2023-11-01T21:46:38.647Z,1.10
2023-11-01T21:49:13.864Z,1.25
2023-11-01T21:51:40.878Z,1.00
2023-11-01T21:54:13.392Z,0.80
2023-11-01T21:56:41.713Z,1.13
2023-11-01T21:59:12.918Z,1.20
2023-11-01T22:01:40.197Z,0.80
2023-11-01T22:04:20.958Z,0.88
2023-11-01T22:06:49.903Z,1.20
2023-11-01T22:09:17.779Z,1.10
2023-11-01T22:11:47.625Z,1.77
2023-11-01T22:14:29.756Z,1.90
2023-11-01T22:16:57.154Z,1.42
2023-11-01T22:19:33.037Z,1.33
2023-11-01T22:22:01.519Z,1.50
2023-11-01T22:24:29.565Z,1.10
2023-11-01T22:26:58.583Z,1.10
2023-11-01T22:29:34.558Z,1.45
2023-11-01T22:32:01.501Z,1.20
2023-11-01T22:34:29.836Z,1.35
2023-11-01T22:36:56.831Z,1.23
2023-11-01T22:39:38.321Z,1.48
2023-11-01T22:42:07.394Z,1.42
2023-11-01T22:44:34.354Z,1.30
2023-11-01T22:47:01.245Z,1.23
2023-11-01T22:49:28.165Z,1.55
2023-11-01T22:51:55.053Z,1.40
2023-11-01T22:54:21.999Z,1.63
2023-11-01T22:56:49.039Z,1.53
2023-11-01T22:59:17.530Z,1.30
2023-11-01T23:01:44.603Z,1.52
2023-11-01T23:04:11.560Z,1.40
2023-11-01T23:06:38.586Z,1.08
2023-11-01T23:09:05.596Z,1.10
2023-11-01T23:11:33.009Z,1.00
2023-11-01T23:14:00.479Z,1.17
2023-11-01T23:16:29.699Z,1.27
2023-11-01T23:18:56.811Z,1.20
2023-11-01T23:21:23.914Z,0.83
2023-11-01T23:23:50.954Z,1.50
2023-11-01T23:26:19.877Z,1.10
2023-11-01T23:28:58.197Z,1.27
2023-11-01T23:31:31.027Z,1.20
2023-11-01T23:33:57.920Z,1.43
2023-11-01T23:36:28.648Z,1.40
2023-11-01T23:38:56.013Z,1.38
2023-11-01T23:41:32.103Z,1.38
2023-11-01T23:43:59.886Z,1.20
2023-11-01T23:46:27.612Z,1.50
2023-11-01T23:48:57.723Z,1.20
2023-11-01T23:51:51.526Z,1.10
2023-11-01T23:54:20.093Z,1.25
2023-11-01T23:56:47.269Z,1.20
2023-11-01T23:59:14.314Z,1.10
